sensor_id;sensor_type;location;lat;lon;timestamp;P1;durP1;ratioP1;P2;durP2;ratioP2
67049;SDS011;53955;52.442;13.284;2023-07-29T00:00:52;6.65;;;4.80;;
67049;SDS011;53955;52.442;13.284;2023-07-29T00:03:19;6.70;;;4.10;;
67049;SDS011;53955;52.442;13.284;2023-07-29T00:05:47;6.50;;;5.32;;
67049;SDS011;53955;52.442;13.284;2023-07-29T00:08:14;5.75;;;4.70;;
67049;SDS011;53955;52.442;13.284;2023-07-29T00:10:40;7.97;;;5.43;;
67049;SDS011;53955;52.442;13.284;2023-07-29T00:13:07;6.38;;;5.22;;
67049;SDS011;53955;52.442;13.284;2023-07-29T00:15:34;7.97;;;5.65;;
67049;SDS011;53955;52.442;13.284;2023-07-29T00:18:01;6.80;;;5.07;;
67049;SDS011;53955;52.442;13.284;2023-07-29T00:20:28;8.55;;;5.78;;
67049;SDS011;53955;52.442;13.284;2023-07-29T00:22:55;7.43;;;5.90;;
67049;SDS011;53955;52.442;13.284;2023-07-29T00:25:23;6.80;;;5.70;;
67049;SDS011;53955;52.442;13.284;2023-07-29T00:27:50;7.97;;;4.75;;
67049;SDS011;53955;52.442;13.284;2023-07-29T00:30:16;9.52;;;5.45;;
67049;SDS011;53955;52.442;13.284;2023-07-29T00:32:43;6.65;;;5.25;;
67049;SDS011;53955;52.442;13.284;2023-07-29T00:35:09;6.75;;;5.60;;
67049;SDS011;53955;52.442;13.284;2023-07-29T00:37:37;6.78;;;4.60;;
67049;SDS011;53955;52.442;13.284;2023-07-29T00:40:06;8.13;;;5.35;;
67049;SDS011;53955;52.442;13.284;2023-07-29T00:42:40;6.13;;;5.15;;
67049;SDS011;53955;52.442;13.284;2023-07-29T00:45:08;7.00;;;5.32;;
67049;SDS011;53955;52.442;13.284;2023-07-29T00:47:34;8.82;;;5.38;;
67049;SDS011;53955;52.442;13.284;2023-07-29T00:50:01;6.70;;;5.10;;
67049;SDS011;53955;52.442;13.284;2023-07-29T00:52:28;6.25;;;4.70;;
67049;SDS011;53955;52.442;13.284;2023-07-29T00:54:56;6.97;;;4.97;;
67049;SDS011;53955;52.442;13.284;2023-07-29T00:57:23;6.95;;;4.90;;
67049;SDS011;53955;52.442;13.284;2023-07-29T00:59:51;7.97;;;5.63;;
67049;SDS011;53955;52.442;13.284;2023-07-29T01:02:18;6.60;;;5.18;;
67049;SDS011;53955;52.442;13.284;2023-07-29T01:04:44;5.63;;;4.97;;
67049;SDS011;53955;52.442;13.284;2023-07-29T01:07:13;8.60;;;4.97;;
67049;SDS011;53955;52.442;13.284;2023-07-29T01:09:48;8.38;;;5.30;;
67049;SDS011;53955;52.442;13.284;2023-07-29T01:12:22;11.40;;;5.60;;
67049;SDS011;53955;52.442;13.284;2023-07-29T01:14:55;10.45;;;5.80;;
67049;SDS011;53955;52.442;13.284;2023-07-29T01:17:35;8.50;;;5.25;;
67049;SDS011;53955;52.442;13.284;2023-07-29T01:20:06;6.13;;;4.97;;
67049;SDS011;53955;52.442;13.284;2023-07-29T01:22:34;6.15;;;4.55;;
67049;SDS011;53955;52.442;13.284;2023-07-29T01:25:04;6.50;;;4.70;;
67049;SDS011;53955;52.442;13.284;2023-07-29T01:27:31;5.85;;;4.30;;
67049;SDS011;53955;52.442;13.284;2023-07-29T01:29:58;6.35;;;4.30;;
67049;SDS011;53955;52.442;13.284;2023-07-29T01:32:29;5.60;;;4.35;;
67049;SDS011;53955;52.442;13.284;2023-07-29T01:35:04;9.05;;;4.75;;
67049;SDS011;53955;52.442;13.284;2023-07-29T01:37:36;5.35;;;4.03;;
67049;SDS011;53955;52.442;13.284;2023-07-29T01:40:06;5.18;;;3.78;;
67049;SDS011;53955;52.442;13.284;2023-07-29T01:42:35;7.60;;;4.47;;
67049;SDS011;53955;52.442;13.284;2023-07-29T01:45:01;5.70;;;3.83;;
67049;SDS011;53955;52.442;13.284;2023-07-29T01:47:28;6.28;;;4.55;;
67049;SDS011;53955;52.442;13.284;2023-07-29T01:49:55;6.10;;;3.92;;
67049;SDS011;53955;52.442;13.284;2023-07-29T01:52:21;6.78;;;3.95;;
67049;SDS011;53955;52.442;13.284;2023-07-29T01:54:48;6.78;;;4.00;;
67049;SDS011;53955;52.442;13.284;2023-07-29T01:57:16;6.35;;;3.97;;
67049;SDS011;53955;52.442;13.284;2023-07-29T01:59:43;6.30;;;3.95;;
67049;SDS011;53955;52.442;13.284;2023-07-29T02:02:09;5.40;;;3.78;;
67049;SDS011;53955;52.442;13.284;2023-07-29T02:04:36;6.13;;;4.00;;
67049;SDS011;53955;52.442;13.284;2023-07-29T02:07:03;6.70;;;4.30;;
67049;SDS011;53955;52.442;13.284;2023-07-29T02:09:30;5.53;;;3.50;;
67049;SDS011;53955;52.442;13.284;2023-07-29T02:11:57;5.45;;;3.42;;
67049;SDS011;53955;52.442;13.284;2023-07-29T02:14:25;6.78;;;3.70;;
67049;SDS011;53955;52.442;13.284;2023-07-29T02:16:51;6.20;;;3.80;;
67049;SDS011;53955;52.442;13.284;2023-07-29T02:19:18;6.97;;;4.15;;
67049;SDS011;53955;52.442;13.284;2023-07-29T02:21:44;5.38;;;3.65;;
67049;SDS011;53955;52.442;13.284;2023-07-29T02:24:11;5.63;;;3.67;;
67049;SDS011;53955;52.442;13.284;2023-07-29T02:26:37;6.97;;;3.83;;
67049;SDS011;53955;52.442;13.284;2023-07-29T02:29:04;6.25;;;3.80;;
67049;SDS011;53955;52.442;13.284;2023-07-29T02:31:32;5.32;;;4.07;;
67049;SDS011;53955;52.442;13.284;2023-07-29T02:33:59;5.40;;;3.25;;
67049;SDS011;53955;52.442;13.284;2023-07-29T02:36:26;6.78;;;3.45;;
67049;SDS011;53955;52.442;13.284;2023-07-29T02:38:53;5.57;;;3.45;;
67049;SDS011;53955;52.442;13.284;2023-07-29T02:41:19;5.50;;;3.95;;
67049;SDS011;53955;52.442;13.284;2023-07-29T02:43:48;5.20;;;3.80;;
67049;SDS011;53955;52.442;13.284;2023-07-29T02:46:15;4.97;;;3.42;;
67049;SDS011;53955;52.442;13.284;2023-07-29T02:48:44;5.00;;;3.47;;
67049;SDS011;53955;52.442;13.284;2023-07-29T02:51:10;8.35;;;3.10;;
67049;SDS011;53955;52.442;13.284;2023-07-29T02:53:37;6.15;;;3.60;;
67049;SDS011;53955;52.442;13.284;2023-07-29T02:56:04;7.38;;;3.53;;
67049;SDS011;53955;52.442;13.284;2023-07-29T02:58:31;5.53;;;3.30;;
67049;SDS011;53955;52.442;13.284;2023-07-29T03:01:00;5.03;;;3.08;;
67049;SDS011;53955;52.442;13.284;2023-07-29T03:03:26;5.35;;;3.80;;
67049;SDS011;53955;52.442;13.284;2023-07-29T03:05:58;5.18;;;3.15;;
67049;SDS011;53955;52.442;13.284;2023-07-29T03:08:26;4.75;;;3.45;;
67049;SDS011;53955;52.442;13.284;2023-07-29T03:10:52;4.25;;;3.13;;
67049;SDS011;53955;52.442;13.284;2023-07-29T03:13:19;5.50;;;3.80;;
67049;SDS011;53955;52.442;13.284;2023-07-29T03:15:46;6.53;;;3.42;;
67049;SDS011;53955;52.442;13.284;2023-07-29T03:18:12;4.70;;;3.30;;
67049;SDS011;53955;52.442;13.284;2023-07-29T03:20:39;5.20;;;3.17;;
67049;SDS011;53955;52.442;13.284;2023-07-29T03:23:07;8.85;;;3.40;;
67049;SDS011;53955;52.442;13.284;2023-07-29T03:25:33;4.65;;;3.50;;
67049;SDS011;53955;52.442;13.284;2023-07-29T03:28:00;7.65;;;3.72;;
67049;SDS011;53955;52.442;13.284;2023-07-29T03:30:26;5.90;;;3.40;;
67049;SDS011;53955;52.442;13.284;2023-07-29T03:32:53;6.13;;;4.05;;
67049;SDS011;53955;52.442;13.284;2023-07-29T03:35:19;4.60;;;3.33;;
67049;SDS011;53955;52.442;13.284;2023-07-29T03:37:46;4.68;;;3.30;;
67049;SDS011;53955;52.442;13.284;2023-07-29T03:40:14;4.65;;;3.00;;
67049;SDS011;53955;52.442;13.284;2023-07-29T03:42:40;5.10;;;3.45;;
67049;SDS011;53955;52.442;13.284;2023-07-29T03:45:07;4.80;;;3.42;;
67049;SDS011;53955;52.442;13.284;2023-07-29T03:47:35;5.45;;;3.60;;
67049;SDS011;53955;52.442;13.284;2023-07-29T03:50:01;4.55;;;3.38;;
67049;SDS011;53955;52.442;13.284;2023-07-29T03:52:29;5.10;;;3.70;;
67049;SDS011;53955;52.442;13.284;2023-07-29T03:54:56;11.38;;;4.30;;
67049;SDS011;53955;52.442;13.284;2023-07-29T03:57:23;6.18;;;3.92;;
67049;SDS011;53955;52.442;13.284;2023-07-29T03:59:50;5.10;;;3.40;;
67049;SDS011;53955;52.442;13.284;2023-07-29T04:02:17;5.43;;;3.88;;
67049;SDS011;53955;52.442;13.284;2023-07-29T04:04:43;6.57;;;3.83;;
67049;SDS011;53955;52.442;13.284;2023-07-29T04:07:12;4.80;;;3.50;;
67049;SDS011;53955;52.442;13.284;2023-07-29T04:09:39;5.15;;;3.47;;
67049;SDS011;53955;52.442;13.284;2023-07-29T04:12:05;5.80;;;3.75;;
67049;SDS011;53955;52.442;13.284;2023-07-29T04:14:34;5.20;;;3.85;;
67049;SDS011;53955;52.442;13.284;2023-07-29T04:17:00;5.18;;;3.70;;
67049;SDS011;53955;52.442;13.284;2023-07-29T04:19:27;6.20;;;4.25;;
67049;SDS011;53955;52.442;13.284;2023-07-29T04:21:53;8.20;;;3.55;;
67049;SDS011;53955;52.442;13.284;2023-07-29T04:24:20;5.22;;;3.42;;
67049;SDS011;53955;52.442;13.284;2023-07-29T04:26:48;5.82;;;4.13;;
67049;SDS011;53955;52.442;13.284;2023-07-29T04:29:14;5.03;;;3.60;;
67049;SDS011;53955;52.442;13.284;2023-07-29T04:31:42;4.88;;;3.58;;
67049;SDS011;53955;52.442;13.284;2023-07-29T04:34:09;6.22;;;3.72;;
67049;SDS011;53955;52.442;13.284;2023-07-29T04:36:35;5.32;;;3.70;;
67049;SDS011;53955;52.442;13.284;2023-07-29T04:39:02;4.70;;;3.25;;
67049;SDS011;53955;52.442;13.284;2023-07-29T04:41:28;8.13;;;3.40;;
67049;SDS011;53955;52.442;13.284;2023-07-29T04:43:55;5.65;;;3.80;;
67049;SDS011;53955;52.442;13.284;2023-07-29T04:46:21;6.75;;;3.42;;
67049;SDS011;53955;52.442;13.284;2023-07-29T04:48:49;5.20;;;3.53;;
67049;SDS011;53955;52.442;13.284;2023-07-29T04:51:16;9.93;;;3.90;;
67049;SDS011;53955;52.442;13.284;2023-07-29T04:53:42;6.43;;;3.25;;
67049;SDS011;53955;52.442;13.284;2023-07-29T04:56:15;5.65;;;3.22;;
67049;SDS011;53955;52.442;13.284;2023-07-29T04:58:42;5.60;;;2.95;;
67049;SDS011;53955;52.442;13.284;2023-07-29T05:01:08;8.00;;;3.33;;
67049;SDS011;53955;52.442;13.284;2023-07-29T05:03:35;5.10;;;3.80;;
67049;SDS011;53955;52.442;13.284;2023-07-29T05:06:06;5.15;;;3.30;;
67049;SDS011;53955;52.442;13.284;2023-07-29T05:08:32;4.70;;;3.30;;
67049;SDS011;53955;52.442;13.284;2023-07-29T05:10:59;7.55;;;3.58;;
67049;SDS011;53955;52.442;13.284;2023-07-29T05:13:25;4.60;;;3.03;;
67049;SDS011;53955;52.442;13.284;2023-07-29T05:15:52;7.18;;;3.72;;
67049;SDS011;53955;52.442;13.284;2023-07-29T05:18:19;6.85;;;3.15;;
67049;SDS011;53955;52.442;13.284;2023-07-29T05:20:46;4.63;;;2.83;;
67049;SDS011;53955;52.442;13.284;2023-07-29T05:23:14;5.18;;;3.28;;
67049;SDS011;53955;52.442;13.284;2023-07-29T05:25:41;4.90;;;3.35;;
67049;SDS011;53955;52.442;13.284;2023-07-29T05:28:07;4.30;;;3.15;;
67049;SDS011;53955;52.442;13.284;2023-07-29T05:30:34;7.72;;;3.15;;
67049;SDS011;53955;52.442;13.284;2023-07-29T05:33:02;6.90;;;3.33;;
67049;SDS011;53955;52.442;13.284;2023-07-29T05:35:29;4.35;;;3.00;;
67049;SDS011;53955;52.442;13.284;2023-07-29T05:37:55;6.28;;;3.22;;
67049;SDS011;53955;52.442;13.284;2023-07-29T05:40:23;4.35;;;2.90;;
67049;SDS011;53955;52.442;13.284;2023-07-29T05:42:50;4.60;;;3.10;;
67049;SDS011;53955;52.442;13.284;2023-07-29T05:45:16;5.53;;;2.90;;
67049;SDS011;53955;52.442;13.284;2023-07-29T05:47:43;5.45;;;3.60;;
67049;SDS011;53955;52.442;13.284;2023-07-29T05:50:09;4.90;;;3.10;;
67049;SDS011;53955;52.442;13.284;2023-07-29T05:52:36;4.47;;;3.08;;
67049;SDS011;53955;52.442;13.284;2023-07-29T05:55:03;4.03;;;2.90;;
67049;SDS011;53955;52.442;13.284;2023-07-29T05:57:31;7.40;;;2.72;;
67049;SDS011;53955;52.442;13.284;2023-07-29T05:59:58;4.05;;;2.88;;
67049;SDS011;53955;52.442;13.284;2023-07-29T06:02:24;4.60;;;3.13;;
67049;SDS011;53955;52.442;13.284;2023-07-29T06:04:51;4.18;;;2.72;;
67049;SDS011;53955;52.442;13.284;2023-07-29T06:07:18;3.55;;;2.80;;
67049;SDS011;53955;52.442;13.284;2023-07-29T06:09:44;3.33;;;2.53;;
67049;SDS011;53955;52.442;13.284;2023-07-29T06:12:11;4.53;;;2.70;;
67049;SDS011;53955;52.442;13.284;2023-07-29T06:14:39;3.97;;;2.65;;
67049;SDS011;53955;52.442;13.284;2023-07-29T06:17:05;3.85;;;2.83;;
67049;SDS011;53955;52.442;13.284;2023-07-29T06:19:32;8.38;;;2.85;;
67049;SDS011;53955;52.442;13.284;2023-07-29T06:21:59;4.05;;;2.70;;
67049;SDS011;53955;52.442;13.284;2023-07-29T06:24:26;4.07;;;2.40;;
67049;SDS011;53955;52.442;13.284;2023-07-29T06:26:53;3.55;;;1.98;;
67049;SDS011;53955;52.442;13.284;2023-07-29T06:29:19;5.28;;;2.63;;
67049;SDS011;53955;52.442;13.284;2023-07-29T06:31:47;3.67;;;2.20;;
67049;SDS011;53955;52.442;13.284;2023-07-29T06:34:16;3.13;;;2.00;;
67049;SDS011;53955;52.442;13.284;2023-07-29T06:36:43;2.95;;;2.08;;
67049;SDS011;53955;52.442;13.284;2023-07-29T06:39:10;2.30;;;1.50;;
67049;SDS011;53955;52.442;13.284;2023-07-29T06:41:39;2.80;;;1.90;;
67049;SDS011;53955;52.442;13.284;2023-07-29T06:44:06;3.95;;;2.30;;
67049;SDS011;53955;52.442;13.284;2023-07-29T06:46:32;7.50;;;2.20;;
67049;SDS011;53955;52.442;13.284;2023-07-29T06:49:00;2.83;;;1.90;;
67049;SDS011;53955;52.442;13.284;2023-07-29T06:51:27;3.22;;;2.30;;
67049;SDS011;53955;52.442;13.284;2023-07-29T06:56:40;3.38;;;2.03;;
67049;SDS011;53955;52.442;13.284;2023-07-29T06:59:06;3.08;;;1.98;;
67049;SDS011;53955;52.442;13.284;2023-07-29T07:01:33;2.95;;;2.08;;
67049;SDS011;53955;52.442;13.284;2023-07-29T07:04:01;3.47;;;2.15;;
67049;SDS011;53955;52.442;13.284;2023-07-29T07:06:28;3.03;;;2.10;;
67049;SDS011;53955;52.442;13.284;2023-07-29T07:08:54;2.80;;;1.95;;
67049;SDS011;53955;52.442;13.284;2023-07-29T07:11:21;2.83;;;2.00;;
67049;SDS011;53955;52.442;13.284;2023-07-29T07:13:47;3.75;;;2.28;;
67049;SDS011;53955;52.442;13.284;2023-07-29T07:16:14;4.85;;;2.47;;
67049;SDS011;53955;52.442;13.284;2023-07-29T07:18:40;3.38;;;2.20;;
67049;SDS011;53955;52.442;13.284;2023-07-29T07:21:08;2.92;;;1.90;;
67049;SDS011;53955;52.442;13.284;2023-07-29T07:23:35;2.50;;;1.92;;
67049;SDS011;53955;52.442;13.284;2023-07-29T07:26:02;3.55;;;2.30;;
67049;SDS011;53955;52.442;13.284;2023-07-29T07:28:28;3.10;;;2.00;;
67049;SDS011;53955;52.442;13.284;2023-07-29T07:30:55;3.30;;;2.00;;
67049;SDS011;53955;52.442;13.284;2023-07-29T07:33:29;2.92;;;2.20;;
67049;SDS011;53955;52.442;13.284;2023-07-29T07:35:55;3.55;;;2.38;;
67049;SDS011;53955;52.442;13.284;2023-07-29T07:38:23;3.05;;;2.25;;
67049;SDS011;53955;52.442;13.284;2023-07-29T07:40:53;2.88;;;2.35;;
67049;SDS011;53955;52.442;13.284;2023-07-29T07:43:20;2.78;;;1.92;;
67049;SDS011;53955;52.442;13.284;2023-07-29T07:45:47;2.70;;;1.92;;
67049;SDS011;53955;52.442;13.284;2023-07-29T07:48:14;3.05;;;2.08;;
67049;SDS011;53955;52.442;13.284;2023-07-29T07:50:41;2.95;;;2.05;;
67049;SDS011;53955;52.442;13.284;2023-07-29T07:53:08;4.80;;;2.05;;
67049;SDS011;53955;52.442;13.284;2023-07-29T07:55:36;2.90;;;1.92;;
67049;SDS011;53955;52.442;13.284;2023-07-29T07:58:03;2.55;;;1.70;;
67049;SDS011;53955;52.442;13.284;2023-07-29T08:00:29;3.55;;;2.20;;
67049;SDS011;53955;52.442;13.284;2023-07-29T08:02:56;2.58;;;1.80;;
67049;SDS011;53955;52.442;13.284;2023-07-29T08:05:23;3.30;;;2.20;;
67049;SDS011;53955;52.442;13.284;2023-07-29T08:07:49;3.08;;;2.28;;
67049;SDS011;53955;52.442;13.284;2023-07-29T08:10:16;5.93;;;2.13;;
67049;SDS011;53955;52.442;13.284;2023-07-29T08:12:44;2.50;;;1.88;;
67049;SDS011;53955;52.442;13.284;2023-07-29T08:15:11;2.72;;;1.92;;
67049;SDS011;53955;52.442;13.284;2023-07-29T08:17:37;7.85;;;2.08;;
67049;SDS011;53955;52.442;13.284;2023-07-29T08:20:04;2.45;;;1.70;;
67049;SDS011;53955;52.442;13.284;2023-07-29T08:22:31;2.72;;;1.95;;
67049;SDS011;53955;52.442;13.284;2023-07-29T08:24:58;3.03;;;2.20;;
67049;SDS011;53955;52.442;13.284;2023-07-29T08:27:24;3.33;;;1.90;;
67049;SDS011;53955;52.442;13.284;2023-07-29T08:29:53;3.53;;;2.15;;
67049;SDS011;53955;52.442;13.284;2023-07-29T08:32:19;3.13;;;1.92;;
67049;SDS011;53955;52.442;13.284;2023-07-29T08:34:46;3.30;;;1.88;;
67049;SDS011;53955;52.442;13.284;2023-07-29T08:37:12;2.22;;;1.83;;
67049;SDS011;53955;52.442;13.284;2023-07-29T08:39:39;2.88;;;1.90;;
67049;SDS011;53955;52.442;13.284;2023-07-29T08:42:07;2.33;;;1.67;;
67049;SDS011;53955;52.442;13.284;2023-07-29T08:44:40;2.03;;;1.58;;
67049;SDS011;53955;52.442;13.284;2023-07-29T08:47:09;2.20;;;1.63;;
67049;SDS011;53955;52.442;13.284;2023-07-29T08:49:36;2.92;;;1.90;;
67049;SDS011;53955;52.442;13.284;2023-07-29T08:52:03;3.63;;;2.08;;
67049;SDS011;53955;52.442;13.284;2023-07-29T08:54:30;3.53;;;2.45;;
67049;SDS011;53955;52.442;13.284;2023-07-29T08:56:57;3.00;;;1.80;;
67049;SDS011;53955;52.442;13.284;2023-07-29T08:59:25;3.50;;;2.22;;
67049;SDS011;53955;52.442;13.284;2023-07-29T09:01:52;2.45;;;1.75;;
67049;SDS011;53955;52.442;13.284;2023-07-29T09:04:23;3.95;;;1.60;;
67049;SDS011;53955;52.442;13.284;2023-07-29T09:06:50;2.83;;;1.90;;
67049;SDS011;53955;52.442;13.284;2023-07-29T09:09:17;3.30;;;2.10;;
67049;SDS011;53955;52.442;13.284;2023-07-29T09:11:43;2.67;;;1.80;;
67049;SDS011;53955;52.442;13.284;2023-07-29T09:14:10;2.80;;;1.80;;
67049;SDS011;53955;52.442;13.284;2023-07-29T09:16:37;4.18;;;2.28;;
67049;SDS011;53955;52.442;13.284;2023-07-29T09:19:04;2.70;;;2.00;;
67049;SDS011;53955;52.442;13.284;2023-07-29T09:21:32;3.45;;;1.90;;
67049;SDS011;53955;52.442;13.284;2023-07-29T09:24:02;2.38;;;1.75;;
67049;SDS011;53955;52.442;13.284;2023-07-29T09:26:30;2.70;;;1.70;;
67049;SDS011;53955;52.442;13.284;2023-07-29T09:28:57;3.85;;;1.60;;
67049;SDS011;53955;52.442;13.284;2023-07-29T09:31:25;6.07;;;1.60;;
67049;SDS011;53955;52.442;13.284;2023-07-29T09:33:55;3.50;;;1.90;;
67049;SDS011;53955;52.442;13.284;2023-07-29T09:36:22;2.40;;;1.60;;
67049;SDS011;53955;52.442;13.284;2023-07-29T09:38:53;5.32;;;2.00;;
67049;SDS011;53955;52.442;13.284;2023-07-29T09:41:21;4.32;;;2.00;;
67049;SDS011;53955;52.442;13.284;2023-07-29T09:43:51;2.08;;;1.50;;
67049;SDS011;53955;52.442;13.284;2023-07-29T09:46:22;2.30;;;1.75;;
67049;SDS011;53955;52.442;13.284;2023-07-29T09:48:50;3.03;;;1.60;;
67049;SDS011;53955;52.442;13.284;2023-07-29T09:51:20;2.17;;;1.73;;
67049;SDS011;53955;52.442;13.284;2023-07-29T09:53:47;3.58;;;1.48;;
67049;SDS011;53955;52.442;13.284;2023-07-29T09:56:15;2.70;;;2.10;;
67049;SDS011;53955;52.442;13.284;2023-07-29T09:58:42;2.38;;;1.75;;
67049;SDS011;53955;52.442;13.284;2023-07-29T10:01:10;3.80;;;2.03;;
67049;SDS011;53955;52.442;13.284;2023-07-29T10:03:37;3.78;;;1.95;;
67049;SDS011;53955;52.442;13.284;2023-07-29T10:06:05;2.92;;;1.83;;
67049;SDS011;53955;52.442;13.284;2023-07-29T10:08:33;6.05;;;2.38;;
67049;SDS011;53955;52.442;13.284;2023-07-29T10:11:00;4.93;;;2.03;;
67049;SDS011;53955;52.442;13.284;2023-07-29T10:13:29;4.13;;;1.77;;
67049;SDS011;53955;52.442;13.284;2023-07-29T10:15:55;4.82;;;2.63;;
67049;SDS011;53955;52.442;13.284;2023-07-29T10:18:23;4.85;;;2.78;;
67049;SDS011;53955;52.442;13.284;2023-07-29T10:20:50;4.93;;;2.42;;
67049;SDS011;53955;52.442;13.284;2023-07-29T10:23:18;2.88;;;1.60;;
67049;SDS011;53955;52.442;13.284;2023-07-29T10:25:49;3.45;;;2.08;;
67049;SDS011;53955;52.442;13.284;2023-07-29T10:28:19;2.33;;;1.65;;
67049;SDS011;53955;52.442;13.284;2023-07-29T10:30:52;2.88;;;1.75;;
67049;SDS011;53955;52.442;13.284;2023-07-29T10:33:20;3.42;;;2.10;;
67049;SDS011;53955;52.442;13.284;2023-07-29T10:35:48;3.00;;;1.48;;
67049;SDS011;53955;52.442;13.284;2023-07-29T10:38:15;2.85;;;1.77;;
67049;SDS011;53955;52.442;13.284;2023-07-29T10:40:45;3.25;;;2.03;;
67049;SDS011;53955;52.442;13.284;2023-07-29T10:43:15;2.58;;;1.60;;
67049;SDS011;53955;52.442;13.284;2023-07-29T10:45:49;3.50;;;1.70;;
67049;SDS011;53955;52.442;13.284;2023-07-29T10:53:54;2.13;;;1.42;;
67049;SDS011;53955;52.442;13.284;2023-07-29T10:56:25;4.80;;;1.52;;
67049;SDS011;53955;52.442;13.284;2023-07-29T10:58:54;2.55;;;1.90;;
67049;SDS011;53955;52.442;13.284;2023-07-29T11:01:31;2.90;;;1.67;;
67049;SDS011;53955;52.442;13.284;2023-07-29T11:09:53;5.32;;;2.15;;
67049;SDS011;53955;52.442;13.284;2023-07-29T11:12:40;3.45;;;1.63;;
67049;SDS011;53955;52.442;13.284;2023-07-29T11:15:20;2.97;;;1.70;;
67049;SDS011;53955;52.442;13.284;2023-07-29T11:17:49;3.88;;;1.95;;
67049;SDS011;53955;52.442;13.284;2023-07-29T11:20:18;2.90;;;1.42;;
67049;SDS011;53955;52.442;13.284;2023-07-29T11:22:45;3.63;;;2.08;;
67049;SDS011;53955;52.442;13.284;2023-07-29T11:25:13;3.95;;;1.75;;
67049;SDS011;53955;52.442;13.284;2023-07-29T11:27:41;1.98;;;1.10;;
67049;SDS011;53955;52.442;13.284;2023-07-29T11:30:08;2.90;;;1.23;;
67049;SDS011;53955;52.442;13.284;2023-07-29T11:32:36;3.08;;;1.17;;
67049;SDS011;53955;52.442;13.284;2023-07-29T11:35:04;2.38;;;1.55;;
67049;SDS011;53955;52.442;13.284;2023-07-29T11:37:33;2.38;;;1.40;;
67049;SDS011;53955;52.442;13.284;2023-07-29T11:40:00;3.15;;;1.10;;
67049;SDS011;53955;52.442;13.284;2023-07-29T11:42:27;2.38;;;1.17;;
67049;SDS011;53955;52.442;13.284;2023-07-29T11:44:56;2.38;;;1.20;;
67049;SDS011;53955;52.442;13.284;2023-07-29T11:47:23;2.00;;;1.10;;
67049;SDS011;53955;52.442;13.284;2023-07-29T11:49:50;2.05;;;1.10;;
67049;SDS011;53955;52.442;13.284;2023-07-29T11:52:17;3.10;;;1.30;;
67049;SDS011;53955;52.442;13.284;2023-07-29T11:54:46;1.40;;;1.05;;
67049;SDS011;53955;52.442;13.284;2023-07-29T11:57:14;3.28;;;1.25;;
67049;SDS011;53955;52.442;13.284;2023-07-29T11:59:43;2.50;;;1.15;;
67049;SDS011;53955;52.442;13.284;2023-07-29T12:02:10;1.50;;;1.05;;
67049;SDS011;53955;52.442;13.284;2023-07-29T12:04:39;2.00;;;0.95;;
67049;SDS011;53955;52.442;13.284;2023-07-29T12:07:07;1.35;;;0.80;;
67049;SDS011;53955;52.442;13.284;2023-07-29T12:09:34;1.35;;;0.90;;
67049;SDS011;53955;52.442;13.284;2023-07-29T12:12:02;2.00;;;0.98;;
67049;SDS011;53955;52.442;13.284;2023-07-29T12:14:30;5.50;;;1.88;;
67049;SDS011;53955;52.442;13.284;2023-07-29T12:16:59;2.35;;;1.00;;
67049;SDS011;53955;52.442;13.284;2023-07-29T12:19:30;3.15;;;1.33;;
67049;SDS011;53955;52.442;13.284;2023-07-29T12:21:58;1.83;;;1.30;;
67049;SDS011;53955;52.442;13.284;2023-07-29T12:24:24;2.05;;;1.13;;
67049;SDS011;53955;52.442;13.284;2023-07-29T12:26:51;1.77;;;1.05;;
67049;SDS011;53955;52.442;13.284;2023-07-29T12:29:19;2.67;;;1.30;;
67049;SDS011;53955;52.442;13.284;2023-07-29T12:31:45;2.20;;;1.00;;
67049;SDS011;53955;52.442;13.284;2023-07-29T12:34:16;2.15;;;1.30;;
67049;SDS011;53955;52.442;13.284;2023-07-29T12:36:44;2.53;;;1.50;;
67049;SDS011;53955;52.442;13.284;2023-07-29T12:42:34;1.60;;;1.30;;
67049;SDS011;53955;52.442;13.284;2023-07-29T12:45:02;3.45;;;1.65;;
67049;SDS011;53955;52.442;13.284;2023-07-29T12:47:29;2.10;;;1.38;;
67049;SDS011;53955;52.442;13.284;2023-07-29T12:49:55;2.25;;;1.52;;
67049;SDS011;53955;52.442;13.284;2023-07-29T12:52:22;1.75;;;1.17;;
67049;SDS011;53955;52.442;13.284;2023-07-29T12:54:48;2.45;;;1.70;;
67049;SDS011;53955;52.442;13.284;2023-07-29T12:57:15;2.53;;;1.63;;
67049;SDS011;53955;52.442;13.284;2023-07-29T12:59:41;2.22;;;1.38;;
67049;SDS011;53955;52.442;13.284;2023-07-29T13:02:09;2.70;;;1.73;;
67049;SDS011;53955;52.442;13.284;2023-07-29T13:04:36;2.72;;;1.50;;
67049;SDS011;53955;52.442;13.284;2023-07-29T13:07:02;2.70;;;1.52;;
67049;SDS011;53955;52.442;13.284;2023-07-29T13:09:30;2.35;;;1.65;;
67049;SDS011;53955;52.442;13.284;2023-07-29T13:11:56;3.05;;;1.60;;
67049;SDS011;53955;52.442;13.284;2023-07-29T13:14:22;4.18;;;1.83;;
67049;SDS011;53955;52.442;13.284;2023-07-29T13:16:51;2.30;;;1.38;;
67049;SDS011;53955;52.442;13.284;2023-07-29T13:19:19;4.50;;;1.70;;
67049;SDS011;53955;52.442;13.284;2023-07-29T13:21:45;3.30;;;1.90;;
67049;SDS011;53955;52.442;13.284;2023-07-29T13:24:12;2.25;;;1.30;;
67049;SDS011;53955;52.442;13.284;2023-07-29T13:26:39;2.92;;;2.00;;
67049;SDS011;53955;52.442;13.284;2023-07-29T13:29:05;2.95;;;1.73;;
67049;SDS011;53955;52.442;13.284;2023-07-29T13:31:32;3.17;;;1.77;;
67049;SDS011;53955;52.442;13.284;2023-07-29T13:33:58;2.75;;;1.63;;
67049;SDS011;53955;52.442;13.284;2023-07-29T13:36:26;2.70;;;1.60;;
67049;SDS011;53955;52.442;13.284;2023-07-29T13:38:53;2.45;;;1.80;;
67049;SDS011;53955;52.442;13.284;2023-07-29T13:41:19;2.20;;;1.38;;
67049;SDS011;53955;52.442;13.284;2023-07-29T13:43:46;2.10;;;1.27;;
67049;SDS011;53955;52.442;13.284;2023-07-29T13:46:12;2.08;;;1.60;;
67049;SDS011;53955;52.442;13.284;2023-07-29T13:48:39;1.45;;;1.15;;
67049;SDS011;53955;52.442;13.284;2023-07-29T13:51:05;3.00;;;1.60;;
67049;SDS011;53955;52.442;13.284;2023-07-29T13:53:33;1.73;;;1.23;;
67049;SDS011;53955;52.442;13.284;2023-07-29T13:56:00;3.03;;;1.60;;
67049;SDS011;53955;52.442;13.284;2023-07-29T13:58:26;1.80;;;1.23;;
67049;SDS011;53955;52.442;13.284;2023-07-29T14:00:53;2.85;;;1.10;;
67049;SDS011;53955;52.442;13.284;2023-07-29T14:03:19;2.25;;;1.27;;
67049;SDS011;53955;52.442;13.284;2023-07-29T14:05:46;1.92;;;1.33;;
67049;SDS011;53955;52.442;13.284;2023-07-29T14:08:12;1.92;;;1.13;;
67049;SDS011;53955;52.442;13.284;2023-07-29T14:10:40;1.60;;;1.17;;
67049;SDS011;53955;52.442;13.284;2023-07-29T14:13:07;2.60;;;1.20;;
67049;SDS011;53955;52.442;13.284;2023-07-29T14:15:33;1.60;;;1.10;;
67049;SDS011;53955;52.442;13.284;2023-07-29T14:18:00;1.80;;;1.10;;
67049;SDS011;53955;52.442;13.284;2023-07-29T14:20:27;2.63;;;1.13;;
67049;SDS011;53955;52.442;13.284;2023-07-29T14:22:54;1.48;;;1.00;;
67049;SDS011;53955;52.442;13.284;2023-07-29T14:25:20;2.22;;;1.23;;
67049;SDS011;53955;52.442;13.284;2023-07-29T14:27:48;2.47;;;1.60;;
67049;SDS011;53955;52.442;13.284;2023-07-29T14:30:15;2.22;;;1.33;;
67049;SDS011;53955;52.442;13.284;2023-07-29T14:32:41;1.90;;;1.23;;
67049;SDS011;53955;52.442;13.284;2023-07-29T14:35:08;1.23;;;1.00;;
67049;SDS011;53955;52.442;13.284;2023-07-29T14:37:35;2.15;;;1.00;;
67049;SDS011;53955;52.442;13.284;2023-07-29T14:40:02;1.65;;;1.20;;
67049;SDS011;53955;52.442;13.284;2023-07-29T14:42:30;4.03;;;1.38;;
67049;SDS011;53955;52.442;13.284;2023-07-29T14:44:58;1.65;;;1.02;;
67049;SDS011;53955;52.442;13.284;2023-07-29T14:47:24;2.38;;;0.90;;
67049;SDS011;53955;52.442;13.284;2023-07-29T14:49:51;1.70;;;1.08;;
67049;SDS011;53955;52.442;13.284;2023-07-29T14:52:17;1.35;;;0.95;;